sensor_id;sensor_type;location;lat;lon;timestamp;P1;durP1;ratioP1;P2;durP2;ratioP2
5845;SDS011;2949;50.778;7.094;2023-04-25T00:01:31;12.07;;;4.00;;
5845;SDS011;2949;50.778;7.094;2023-04-25T00:03:58;12.40;;;3.50;;
5845;SDS011;2949;50.778;7.094;2023-04-25T00:06:24;12.00;;;3.43;;
5845;SDS011;2949;50.778;7.094;2023-04-25T00:08:51;18.40;;;3.40;;
5845;SDS011;2949;50.778;7.094;2023-04-25T00:11:17;10.87;;;4.17;;
5845;SDS011;2949;50.778;7.094;2023-04-25T00:13:43;8.03;;;3.50;;
5845;SDS011;2949;50.778;7.094;2023-04-25T00:16:08;6.30;;;4.30;;
5845;SDS011;2949;50.778;7.094;2023-04-25T00:18:34;9.80;;;3.57;;
5845;SDS011;2949;50.778;7.094;2023-04-25T00:20:59;9.57;;;3.70;;
5845;SDS011;2949;50.778;7.094;2023-04-25T00:23:25;7.40;;;3.77;;
5845;SDS011;2949;50.778;7.094;2023-04-25T00:25:51;19.10;;;4.30;;
5845;SDS011;2949;50.778;7.094;2023-04-25T00:28:16;7.70;;;3.50;;
5845;SDS011;2949;50.778;7.094;2023-04-25T00:30:42;9.87;;;3.50;;
5845;SDS011;2949;50.778;7.094;2023-04-25T00:33:08;8.43;;;3.80;;
5845;SDS011;2949;50.778;7.094;2023-04-25T00:35:34;7.13;;;3.67;;
5845;SDS011;2949;50.778;7.094;2023-04-25T00:38:00;16.33;;;4.17;;
5845;SDS011;2949;50.778;7.094;2023-04-25T00:40:25;13.00;;;3.70;;
5845;SDS011;2949;50.778;7.094;2023-04-25T00:42:51;9.30;;;3.50;;
5845;SDS011;2949;50.778;7.094;2023-04-25T00:45:17;15.67;;;4.67;;
5845;SDS011;2949;50.778;7.094;2023-04-25T00:47:44;7.17;;;3.97;;
5845;SDS011;2949;50.778;7.094;2023-04-25T00:50:10;16.73;;;4.60;;
5845;SDS011;2949;50.778;7.094;2023-04-25T00:52:40;16.20;;;4.10;;
5845;SDS011;2949;50.778;7.094;2023-04-25T00:55:08;11.73;;;4.87;;
5845;SDS011;2949;50.778;7.094;2023-04-25T00:57:35;18.80;;;4.17;;
5845;SDS011;2949;50.778;7.094;2023-04-25T01:00:02;13.67;;;3.97;;
5845;SDS011;2949;50.778;7.094;2023-04-25T01:02:30;15.93;;;4.93;;
5845;SDS011;2949;50.778;7.094;2023-04-25T01:04:57;22.83;;;4.80;;
5845;SDS011;2949;50.778;7.094;2023-04-25T01:07:23;11.70;;;4.60;;
5845;SDS011;2949;50.778;7.094;2023-04-25T01:09:48;16.30;;;4.30;;
5845;SDS011;2949;50.778;7.094;2023-04-25T01:12:16;11.53;;;4.50;;
5845;SDS011;2949;50.778;7.094;2023-04-25T01:14:42;17.27;;;5.47;;
5845;SDS011;2949;50.778;7.094;2023-04-25T01:17:08;12.70;;;4.40;;
5845;SDS011;2949;50.778;7.094;2023-04-25T01:19:34;24.87;;;5.33;;
5845;SDS011;2949;50.778;7.094;2023-04-25T01:22:00;11.27;;;4.40;;
5845;SDS011;2949;50.778;7.094;2023-04-25T01:24:26;18.33;;;4.60;;
5845;SDS011;2949;50.778;7.094;2023-04-25T01:26:52;18.20;;;4.97;;
5845;SDS011;2949;50.778;7.094;2023-04-25T01:29:21;15.47;;;4.47;;
5845;SDS011;2949;50.778;7.094;2023-04-25T01:31:47;16.40;;;5.27;;
5845;SDS011;2949;50.778;7.094;2023-04-25T01:34:13;23.03;;;5.17;;
5845;SDS011;2949;50.778;7.094;2023-04-25T01:36:38;7.70;;;4.43;;
5845;SDS011;2949;50.778;7.094;2023-04-25T01:39:05;15.67;;;4.80;;
5845;SDS011;2949;50.778;7.094;2023-04-25T01:41:31;12.17;;;5.40;;
5845;SDS011;2949;50.778;7.094;2023-04-25T01:43:57;11.43;;;4.50;;
5845;SDS011;2949;50.778;7.094;2023-04-25T01:46:23;13.17;;;5.07;;
5845;SDS011;2949;50.778;7.094;2023-04-25T01:48:48;13.23;;;5.00;;
5845;SDS011;2949;50.778;7.094;2023-04-25T01:51:14;9.10;;;5.10;;
5845;SDS011;2949;50.778;7.094;2023-04-25T01:53:40;15.33;;;5.93;;
5845;SDS011;2949;50.778;7.094;2023-04-25T01:56:07;21.77;;;4.90;;
5845;SDS011;2949;50.778;7.094;2023-04-25T01:58:33;15.53;;;4.87;;
5845;SDS011;2949;50.778;7.094;2023-04-25T02:00:58;15.00;;;5.17;;
5845;SDS011;2949;50.778;7.094;2023-04-25T02:03:24;19.43;;;4.93;;
5845;SDS011;2949;50.778;7.094;2023-04-25T02:05:49;8.37;;;5.03;;
5845;SDS011;2949;50.778;7.094;2023-04-25T02:08:15;18.83;;;4.77;;
5845;SDS011;2949;50.778;7.094;2023-04-25T02:10:41;17.57;;;5.40;;
5845;SDS011;2949;50.778;7.094;2023-04-25T02:13:07;18.47;;;5.57;;
5845;SDS011;2949;50.778;7.094;2023-04-25T02:15:32;17.70;;;5.27;;
5845;SDS011;2949;50.778;7.094;2023-04-25T02:17:58;17.47;;;5.30;;
5845;SDS011;2949;50.778;7.094;2023-04-25T02:20:25;9.93;;;5.10;;
5845;SDS011;2949;50.778;7.094;2023-04-25T02:22:51;15.13;;;6.00;;
5845;SDS011;2949;50.778;7.094;2023-04-25T02:25:18;13.90;;;5.50;;
5845;SDS011;2949;50.778;7.094;2023-04-25T02:27:45;16.57;;;5.50;;
5845;SDS011;2949;50.778;7.094;2023-04-25T02:30:11;23.27;;;6.13;;
5845;SDS011;2949;50.778;7.094;2023-04-25T02:32:37;20.53;;;5.60;;
5845;SDS011;2949;50.778;7.094;2023-04-25T02:35:04;27.07;;;5.23;;
5845;SDS011;2949;50.778;7.094;2023-04-25T02:37:30;11.40;;;6.00;;
5845;SDS011;2949;50.778;7.094;2023-04-25T02:39:56;30.30;;;6.57;;
5845;SDS011;2949;50.778;7.094;2023-04-25T02:42:22;13.10;;;4.87;;
5845;SDS011;2949;50.778;7.094;2023-04-25T02:44:47;18.47;;;5.20;;
5845;SDS011;2949;50.778;7.094;2023-04-25T02:47:13;13.50;;;5.80;;
5845;SDS011;2949;50.778;7.094;2023-04-25T02:49:39;13.63;;;6.20;;
5845;SDS011;2949;50.778;7.094;2023-04-25T02:52:05;16.20;;;5.10;;
5845;SDS011;2949;50.778;7.094;2023-04-25T02:54:30;16.73;;;5.67;;
5845;SDS011;2949;50.778;7.094;2023-04-25T02:56:56;21.57;;;5.93;;
5845;SDS011;2949;50.778;7.094;2023-04-25T02:59:21;21.63;;;7.10;;
5845;SDS011;2949;50.778;7.094;2023-04-25T03:01:47;22.17;;;7.03;;
5845;SDS011;2949;50.778;7.094;2023-04-25T03:04:12;16.73;;;5.23;;
5845;SDS011;2949;50.778;7.094;2023-04-25T03:06:38;21.70;;;5.90;;
5845;SDS011;2949;50.778;7.094;2023-04-25T03:09:03;19.10;;;5.60;;
5845;SDS011;2949;50.778;7.094;2023-04-25T03:11:29;23.80;;;6.10;;
5845;SDS011;2949;50.778;7.094;2023-04-25T03:13:55;19.47;;;6.10;;
5845;SDS011;2949;50.778;7.094;2023-04-25T03:16:21;16.20;;;5.83;;
5845;SDS011;2949;50.778;7.094;2023-04-25T03:18:46;27.23;;;5.97;;
5845;SDS011;2949;50.778;7.094;2023-04-25T03:21:12;19.83;;;6.33;;
5845;SDS011;2949;50.778;7.094;2023-04-25T03:23:37;16.87;;;5.33;;
5845;SDS011;2949;50.778;7.094;2023-04-25T03:26:03;21.73;;;6.30;;
5845;SDS011;2949;50.778;7.094;2023-04-25T03:28:29;13.60;;;6.03;;
5845;SDS011;2949;50.778;7.094;2023-04-25T03:30:54;22.43;;;6.17;;
5845;SDS011;2949;50.778;7.094;2023-04-25T03:33:20;23.23;;;5.70;;
5845;SDS011;2949;50.778;7.094;2023-04-25T03:35:45;22.33;;;6.53;;
5845;SDS011;2949;50.778;7.094;2023-04-25T03:38:11;15.87;;;6.13;;
5845;SDS011;2949;50.778;7.094;2023-04-25T03:40:36;17.50;;;6.50;;
5845;SDS011;2949;50.778;7.094;2023-04-25T03:43:02;23.43;;;7.17;;
5845;SDS011;2949;50.778;7.094;2023-04-25T03:45:27;21.63;;;6.90;;
5845;SDS011;2949;50.778;7.094;2023-04-25T03:47:53;18.10;;;6.03;;
5845;SDS011;2949;50.778;7.094;2023-04-25T03:50:18;25.27;;;6.77;;
5845;SDS011;2949;50.778;7.094;2023-04-25T03:52:44;16.13;;;5.97;;
5845;SDS011;2949;50.778;7.094;2023-04-25T03:55:09;12.80;;;5.30;;
5845;SDS011;2949;50.778;7.094;2023-04-25T03:57:35;17.03;;;6.27;;
5845;SDS011;2949;50.778;7.094;2023-04-25T04:00:00;24.40;;;6.23;;
5845;SDS011;2949;50.778;7.094;2023-04-25T04:02:26;16.10;;;5.77;;
5845;SDS011;2949;50.778;7.094;2023-04-25T04:04:52;21.33;;;6.20;;
5845;SDS011;2949;50.778;7.094;2023-04-25T04:07:18;13.80;;;5.73;;
5845;SDS011;2949;50.778;7.094;2023-04-25T04:09:43;19.27;;;7.23;;
5845;SDS011;2949;50.778;7.094;2023-04-25T04:12:09;14.77;;;6.53;;
5845;SDS011;2949;50.778;7.094;2023-04-25T04:14:34;12.70;;;5.30;;
5845;SDS011;2949;50.778;7.094;2023-04-25T04:17:00;19.40;;;5.50;;
5845;SDS011;2949;50.778;7.094;2023-04-25T04:19:25;16.23;;;6.60;;
5845;SDS011;2949;50.778;7.094;2023-04-25T04:21:51;21.73;;;5.87;;
5845;SDS011;2949;50.778;7.094;2023-04-25T04:24:16;18.20;;;6.03;;
5845;SDS011;2949;50.778;7.094;2023-04-25T04:26:42;15.77;;;5.00;;
5845;SDS011;2949;50.778;7.094;2023-04-25T04:29:09;17.13;;;5.40;;
5845;SDS011;2949;50.778;7.094;2023-04-25T04:31:35;34.23;;;5.70;;
5845;SDS011;2949;50.778;7.094;2023-04-25T04:34:01;14.50;;;5.07;;
5845;SDS011;2949;50.778;7.094;2023-04-25T04:36:28;9.10;;;5.27;;
5845;SDS011;2949;50.778;7.094;2023-04-25T04:38:54;18.07;;;6.57;;
5845;SDS011;2949;50.778;7.094;2023-04-25T04:41:21;15.67;;;5.80;;
5845;SDS011;2949;50.778;7.094;2023-04-25T04:43:47;16.37;;;5.43;;
5845;SDS011;2949;50.778;7.094;2023-04-25T04:46:12;18.67;;;6.00;;
5845;SDS011;2949;50.778;7.094;2023-04-25T04:48:38;13.60;;;4.83;;
5845;SDS011;2949;50.778;7.094;2023-04-25T04:51:05;22.50;;;6.37;;
5845;SDS011;2949;50.778;7.094;2023-04-25T04:53:31;16.53;;;5.83;;
5845;SDS011;2949;50.778;7.094;2023-04-25T04:55:57;20.77;;;6.00;;
5845;SDS011;2949;50.778;7.094;2023-04-25T04:58:23;13.23;;;5.90;;
5845;SDS011;2949;50.778;7.094;2023-04-25T05:00:48;16.23;;;5.40;;
5845;SDS011;2949;50.778;7.094;2023-04-25T05:03:14;21.90;;;5.57;;
5845;SDS011;2949;50.778;7.094;2023-04-25T05:05:40;25.67;;;5.43;;
5845;SDS011;2949;50.778;7.094;2023-04-25T05:08:06;17.97;;;6.00;;
5845;SDS011;2949;50.778;7.094;2023-04-25T05:10:32;11.90;;;5.83;;
5845;SDS011;2949;50.778;7.094;2023-04-25T05:12:57;17.03;;;6.30;;
5845;SDS011;2949;50.778;7.094;2023-04-25T05:15:23;17.50;;;5.90;;
5845;SDS011;2949;50.778;7.094;2023-04-25T05:17:48;24.60;;;6.47;;
5845;SDS011;2949;50.778;7.094;2023-04-25T05:20:14;12.57;;;5.33;;
5845;SDS011;2949;50.778;7.094;2023-04-25T05:22:40;16.83;;;6.60;;
5845;SDS011;2949;50.778;7.094;2023-04-25T05:25:06;12.33;;;5.97;;
5845;SDS011;2949;50.778;7.094;2023-04-25T05:27:33;15.80;;;6.40;;
5845;SDS011;2949;50.778;7.094;2023-04-25T05:29:58;18.33;;;5.80;;
5845;SDS011;2949;50.778;7.094;2023-04-25T05:32:24;19.93;;;6.73;;
5845;SDS011;2949;50.778;7.094;2023-04-25T05:34:50;15.97;;;6.03;;
5845;SDS011;2949;50.778;7.094;2023-04-25T05:37:16;26.13;;;6.57;;
5845;SDS011;2949;50.778;7.094;2023-04-25T05:39:42;16.83;;;5.70;;
5845;SDS011;2949;50.778;7.094;2023-04-25T05:42:07;14.07;;;6.13;;
5845;SDS011;2949;50.778;7.094;2023-04-25T05:44:33;18.83;;;6.40;;
5845;SDS011;2949;50.778;7.094;2023-04-25T05:46:58;18.50;;;5.60;;
5845;SDS011;2949;50.778;7.094;2023-04-25T05:49:24;16.00;;;5.40;;
5845;SDS011;2949;50.778;7.094;2023-04-25T05:51:49;18.03;;;5.57;;
5845;SDS011;2949;50.778;7.094;2023-04-25T05:54:15;19.77;;;5.90;;
5845;SDS011;2949;50.778;7.094;2023-04-25T05:56:40;18.60;;;5.37;;
5845;SDS011;2949;50.778;7.094;2023-04-25T05:59:06;27.83;;;4.50;;
5845;SDS011;2949;50.778;7.094;2023-04-25T06:01:31;22.37;;;5.63;;
5845;SDS011;2949;50.778;7.094;2023-04-25T06:03:57;11.10;;;4.00;;
5845;SDS011;2949;50.778;7.094;2023-04-25T06:06:22;20.17;;;5.80;;
5845;SDS011;2949;50.778;7.094;2023-04-25T06:08:48;16.67;;;4.37;;
5845;SDS011;2949;50.778;7.094;2023-04-25T06:11:13;17.17;;;4.20;;
5845;SDS011;2949;50.778;7.094;2023-04-25T06:13:39;16.43;;;3.90;;
5845;SDS011;2949;50.778;7.094;2023-04-25T06:16:05;23.70;;;4.30;;
5845;SDS011;2949;50.778;7.094;2023-04-25T06:18:30;18.63;;;3.80;;
5845;SDS011;2949;50.778;7.094;2023-04-25T06:20:56;20.33;;;4.67;;
5845;SDS011;2949;50.778;7.094;2023-04-25T06:23:22;14.73;;;3.70;;
5845;SDS011;2949;50.778;7.094;2023-04-25T06:25:47;13.43;;;4.00;;
5845;SDS011;2949;50.778;7.094;2023-04-25T06:28:13;10.10;;;3.70;;
5845;SDS011;2949;50.778;7.094;2023-04-25T06:30:38;20.00;;;3.63;;
5845;SDS011;2949;50.778;7.094;2023-04-25T06:33:04;15.97;;;3.40;;
5845;SDS011;2949;50.778;7.094;2023-04-25T06:35:29;12.60;;;2.70;;
5845;SDS011;2949;50.778;7.094;2023-04-25T06:37:54;23.37;;;3.03;;
5845;SDS011;2949;50.778;7.094;2023-04-25T06:40:20;12.50;;;2.60;;
5845;SDS011;2949;50.778;7.094;2023-04-25T06:42:46;20.73;;;5.67;;
5845;SDS011;2949;50.778;7.094;2023-04-25T06:45:11;17.77;;;3.30;;
5845;SDS011;2949;50.778;7.094;2023-04-25T06:47:37;13.90;;;3.70;;
5845;SDS011;2949;50.778;7.094;2023-04-25T06:50:02;16.47;;;3.70;;
5845;SDS011;2949;50.778;7.094;2023-04-25T06:52:28;12.00;;;3.70;;
5845;SDS011;2949;50.778;7.094;2023-04-25T06:54:53;16.20;;;3.50;;
5845;SDS011;2949;50.778;7.094;2023-04-25T06:57:19;10.17;;;2.77;;
5845;SDS011;2949;50.778;7.094;2023-04-25T06:59:44;8.73;;;2.33;;
5845;SDS011;2949;50.778;7.094;2023-04-25T07:02:10;18.13;;;3.73;;
5845;SDS011;2949;50.778;7.094;2023-04-25T07:04:36;14.17;;;3.10;;
5845;SDS011;2949;50.778;7.094;2023-04-25T07:07:01;14.47;;;3.70;;
5845;SDS011;2949;50.778;7.094;2023-04-25T07:09:28;14.50;;;3.10;;
5845;SDS011;2949;50.778;7.094;2023-04-25T07:11:54;7.77;;;2.33;;
5845;SDS011;2949;50.778;7.094;2023-04-25T07:14:19;17.33;;;3.23;;
5845;SDS011;2949;50.778;7.094;2023-04-25T07:16:45;12.27;;;3.33;;
5845;SDS011;2949;50.778;7.094;2023-04-25T07:19:11;9.60;;;2.33;;
5845;SDS011;2949;50.778;7.094;2023-04-25T07:21:37;12.13;;;2.53;;
5845;SDS011;2949;50.778;7.094;2023-04-25T07:24:03;18.87;;;3.37;;
5845;SDS011;2949;50.778;7.094;2023-04-25T07:26:29;13.23;;;3.43;;
5845;SDS011;2949;50.778;7.094;2023-04-25T07:28:55;15.40;;;2.90;;
5845;SDS011;2949;50.778;7.094;2023-04-25T07:31:21;13.20;;;3.10;;
5845;SDS011;2949;50.778;7.094;2023-04-25T07:33:47;7.93;;;2.70;;
5845;SDS011;2949;50.778;7.094;2023-04-25T07:36:13;12.20;;;3.93;;
5845;SDS011;2949;50.778;7.094;2023-04-25T07:38:40;11.00;;;2.70;;
5845;SDS011;2949;50.778;7.094;2023-04-25T07:41:06;13.60;;;3.00;;
5845;SDS011;2949;50.778;7.094;2023-04-25T07:43:32;11.17;;;2.57;;
5845;SDS011;2949;50.778;7.094;2023-04-25T07:45:58;9.43;;;2.60;;
5845;SDS011;2949;50.778;7.094;2023-04-25T07:48:24;10.43;;;2.47;;
5845;SDS011;2949;50.778;7.094;2023-04-25T07:50:50;12.23;;;3.40;;
5845;SDS011;2949;50.778;7.094;2023-04-25T07:53:16;9.57;;;2.43;;
5845;SDS011;2949;50.778;7.094;2023-04-25T07:55:43;7.73;;;2.20;;
5845;SDS011;2949;50.778;7.094;2023-04-25T07:58:09;7.13;;;2.10;;
5845;SDS011;2949;50.778;7.094;2023-04-25T08:00:35;14.87;;;3.10;;
5845;SDS011;2949;50.778;7.094;2023-04-25T08:03:02;6.37;;;2.37;;
5845;SDS011;2949;50.778;7.094;2023-04-25T08:05:28;10.10;;;2.00;;
5845;SDS011;2949;50.778;7.094;2023-04-25T08:07:54;14.93;;;2.50;;
5845;SDS011;2949;50.778;7.094;2023-04-25T08:10:21;8.27;;;2.07;;
5845;SDS011;2949;50.778;7.094;2023-04-25T08:12:48;10.47;;;2.47;;
5845;SDS011;2949;50.778;7.094;2023-04-25T08:15:14;9.67;;;1.90;;
5845;SDS011;2949;50.778;7.094;2023-04-25T08:17:40;10.40;;;2.37;;
5845;SDS011;2949;50.778;7.094;2023-04-25T08:20:06;6.10;;;1.93;;
5845;SDS011;2949;50.778;7.094;2023-04-25T08:22:32;7.50;;;1.93;;
5845;SDS011;2949;50.778;7.094;2023-04-25T08:24:59;7.63;;;2.70;;
5845;SDS011;2949;50.778;7.094;2023-04-25T08:27:24;6.50;;;2.17;;
5845;SDS011;2949;50.778;7.094;2023-04-25T08:29:50;17.03;;;2.93;;
5845;SDS011;2949;50.778;7.094;2023-04-25T08:32:16;15.53;;;3.53;;
5845;SDS011;2949;50.778;7.094;2023-04-25T08:34:42;15.80;;;2.70;;
5845;SDS011;2949;50.778;7.094;2023-04-25T08:37:09;8.87;;;2.30;;
5845;SDS011;2949;50.778;7.094;2023-04-25T08:39:35;16.43;;;2.50;;
5845;SDS011;2949;50.778;7.094;2023-04-25T08:42:02;13.27;;;2.80;;
5845;SDS011;2949;50.778;7.094;2023-04-25T08:44:33;10.43;;;2.13;;
5845;SDS011;2949;50.778;7.094;2023-04-25T08:46:59;13.07;;;1.90;;
5845;SDS011;2949;50.778;7.094;2023-04-25T08:49:26;6.27;;;2.60;;
5845;SDS011;2949;50.778;7.094;2023-04-25T08:51:52;5.77;;;1.87;;
5845;SDS011;2949;50.778;7.094;2023-04-25T08:54:19;12.40;;;1.90;;
5845;SDS011;2949;50.778;7.094;2023-04-25T08:56:48;7.00;;;2.47;;
5845;SDS011;2949;50.778;7.094;2023-04-25T08:59:14;5.13;;;2.13;;
5845;SDS011;2949;50.778;7.094;2023-04-25T09:01:40;7.47;;;1.70;;
5845;SDS011;2949;50.778;7.094;2023-04-25T09:04:06;6.97;;;2.40;;
5845;SDS011;2949;50.778;7.094;2023-04-25T09:06:32;6.20;;;1.60;;
5845;SDS011;2949;50.778;7.094;2023-04-25T09:09:06;3.03;;;1.50;;
5845;SDS011;2949;50.778;7.094;2023-04-25T09:11:32;4.00;;;2.17;;
5845;SDS011;2949;50.778;7.094;2023-04-25T09:14:14;8.03;;;2.10;;
5845;SDS011;2949;50.778;7.094;2023-04-25T09:16:56;7.20;;;2.00;;
5845;SDS011;2949;50.778;7.094;2023-04-25T09:19:45;9.23;;;1.50;;
5845;SDS011;2949;50.778;7.094;2023-04-25T09:22:10;5.43;;;1.83;;
5845;SDS011;2949;50.778;7.094;2023-04-25T09:27:06;10.73;;;2.10;;
5845;SDS011;2949;50.778;7.094;2023-04-25T09:29:33;6.40;;;1.20;;
5845;SDS011;2949;50.778;7.094;2023-04-25T09:32:18;7.10;;;2.03;;
5845;SDS011;2949;50.778;7.094;2023-04-25T09:34:46;6.57;;;1.40;;
5845;SDS011;2949;50.778;7.094;2023-04-25T09:37:16;7.50;;;1.70;;
5845;SDS011;2949;50.778;7.094;2023-04-25T09:39:44;11.30;;;1.40;;
5845;SDS011;2949;50.778;7.094;2023-04-25T09:42:11;8.77;;;1.70;;
5845;SDS011;2949;50.778;7.094;2023-04-25T09:44:37;4.67;;;1.47;;
5845;SDS011;2949;50.778;7.094;2023-04-25T09:47:09;8.67;;;1.53;;
5845;SDS011;2949;50.778;7.094;2023-04-25T09:49:38;6.30;;;1.60;;
5845;SDS011;2949;50.778;7.094;2023-04-25T09:52:04;10.47;;;1.60;;
5845;SDS011;2949;50.778;7.094;2023-04-25T09:54:30;11.03;;;2.40;;
5845;SDS011;2949;50.778;7.094;2023-04-25T09:56:56;5.90;;;1.50;;
5845;SDS011;2949;50.778;7.094;2023-04-25T09:59:22;4.87;;;1.37;;
5845;SDS011;2949;50.778;7.094;2023-04-25T10:01:49;6.10;;;1.50;;
5845;SDS011;2949;50.778;7.094;2023-04-25T10:04:18;7.17;;;1.70;;
5845;SDS011;2949;50.778;7.094;2023-04-25T10:06:45;7.17;;;2.00;;
5845;SDS011;2949;50.778;7.094;2023-04-25T10:09:12;5.27;;;1.47;;
5845;SDS011;2949;50.778;7.094;2023-04-25T10:11:38;5.30;;;2.10;;
5845;SDS011;2949;50.778;7.094;2023-04-25T10:14:05;8.30;;;1.93;;
5845;SDS011;2949;50.778;7.094;2023-04-25T10:16:31;9.43;;;1.70;;
5845;SDS011;2949;50.778;7.094;2023-04-25T10:18:57;4.03;;;1.53;;
5845;SDS011;2949;50.778;7.094;2023-04-25T10:21:23;4.83;;;1.30;;
5845;SDS011;2949;50.778;7.094;2023-04-25T10:23:51;7.60;;;2.27;;
5845;SDS011;2949;50.778;7.094;2023-04-25T10:26:18;7.60;;;1.80;;
5845;SDS011;2949;50.778;7.094;2023-04-25T10:28:57;15.53;;;2.00;;
5845;SDS011;2949;50.778;7.094;2023-04-25T10:31:23;7.83;;;1.37;;
5845;SDS011;2949;50.778;7.094;2023-04-25T10:33:49;14.30;;;1.63;;
5845;SDS011;2949;50.778;7.094;2023-04-25T10:36:19;7.40;;;1.83;;
5845;SDS011;2949;50.778;7.094;2023-04-25T10:38:46;4.40;;;1.30;;
5845;SDS011;2949;50.778;7.094;2023-04-25T10:41:13;5.43;;;1.50;;
5845;SDS011;2949;50.778;7.094;2023-04-25T10:43:39;6.50;;;2.20;;
5845;SDS011;2949;50.778;7.094;2023-04-25T10:46:25;10.30;;;2.30;;
5845;SDS011;2949;50.778;7.094;2023-04-25T10:48:52;6.63;;;1.67;;
5845;SDS011;2949;50.778;7.094;2023-04-25T10:51:22;7.30;;;1.80;;
5845;SDS011;2949;50.778;7.094;2023-04-25T10:56:21;13.23;;;2.60;;
5845;SDS011;2949;50.778;7.094;2023-04-25T10:58:48;9.77;;;2.17;;
5845;SDS011;2949;50.778;7.094;2023-04-25T11:01:14;6.23;;;1.87;;
5845;SDS011;2949;50.778;7.094;2023-04-25T11:03:41;5.57;;;1.57;;
5845;SDS011;2949;50.778;7.094;2023-04-25T11:06:51;9.47;;;2.63;;
5845;SDS011;2949;50.778;7.094;2023-04-25T11:08:57;8.83;;;2.23;;
5845;SDS011;2949;50.778;7.094;2023-04-25T11:11:25;6.13;;;1.83;;
5845;SDS011;2949;50.778;7.094;2023-04-25T11:13:52;7.07;;;2.30;;
5845;SDS011;2949;50.778;7.094;2023-04-25T11:16:18;11.00;;;2.33;;
5845;SDS011;2949;50.778;7.094;2023-04-25T11:18:44;11.37;;;1.47;;
5845;SDS011;2949;50.778;7.094;2023-04-25T11:21:10;6.13;;;2.20;;
5845;SDS011;2949;50.778;7.094;2023-04-25T11:23:36;9.50;;;1.93;;
5845;SDS011;2949;50.778;7.094;2023-04-25T11:26:03;6.40;;;2.03;;
5845;SDS011;2949;50.778;7.094;2023-04-25T11:28:29;9.70;;;2.33;;
5845;SDS011;2949;50.778;7.094;2023-04-25T11:30:55;10.00;;;2.40;;
5845;SDS011;2949;50.778;7.094;2023-04-25T11:33:25;10.53;;;2.07;;
5845;SDS011;2949;50.778;7.094;2023-04-25T11:35:55;8.53;;;1.90;;
5845;SDS011;2949;50.778;7.094;2023-04-25T11:38:22;9.10;;;1.70;;
5845;SDS011;2949;50.778;7.094;2023-04-25T11:40:51;11.20;;;1.90;;
5845;SDS011;2949;50.778;7.094;2023-04-25T11:43:19;7.50;;;2.00;;
5845;SDS011;2949;50.778;7.094;2023-04-25T11:45:46;6.03;;;2.20;;
5845;SDS011;2949;50.778;7.094;2023-04-25T11:48:18;23.30;;;2.20;;
5845;SDS011;2949;50.778;7.094;2023-04-25T11:50:45;8.80;;;1.67;;
5845;SDS011;2949;50.778;7.094;2023-04-25T11:53:10;3.43;;;1.30;;
5845;SDS011;2949;50.778;7.094;2023-04-25T11:55:36;4.63;;;1.93;;
5845;SDS011;2949;50.778;7.094;2023-04-25T11:58:02;7.90;;;2.20;;
5845;SDS011;2949;50.778;7.094;2023-04-25T12:00:29;7.13;;;1.90;;
5845;SDS011;2949;50.778;7.094;2023-04-25T12:02:55;10.30;;;1.50;;
5845;SDS011;2949;50.778;7.094;2023-04-25T12:05:27;7.80;;;1.80;;
5845;SDS011;2949;50.778;7.094;2023-04-25T12:07:54;8.27;;;1.20;;
5845;SDS011;2949;50.778;7.094;2023-04-25T12:10:20;4.47;;;1.30;;
5845;SDS011;2949;50.778;7.094;2023-04-25T12:12:46;4.20;;;1.03;;
5845;SDS011;2949;50.778;7.094;2023-04-25T12:15:17;2.50;;;1.07;;
5845;SDS011;2949;50.778;7.094;2023-04-25T12:17:50;4.13;;;1.30;;
5845;SDS011;2949;50.778;7.094;2023-04-25T12:20:18;4.13;;;1.30;;
5845;SDS011;2949;50.778;7.094;2023-04-25T12:22:48;5.73;;;1.73;;
5845;SDS011;2949;50.778;7.094;2023-04-25T12:28:19;7.27;;;1.30;;
5845;SDS011;2949;50.778;7.094;2023-04-25T12:31:00;6.03;;;1.53;;
5845;SDS011;2949;50.778;7.094;2023-04-25T12:33:39;9.33;;;1.60;;
5845;SDS011;2949;50.778;7.094;2023-04-25T12:36:06;9.40;;;1.50;;
5845;SDS011;2949;50.778;7.094;2023-04-25T12:38:37;4.00;;;1.60;;
5845;SDS011;2949;50.778;7.094;2023-04-25T12:41:04;5.80;;;1.23;;
5845;SDS011;2949;50.778;7.094;2023-04-25T12:43:30;7.17;;;1.60;;
5845;SDS011;2949;50.778;7.094;2023-04-25T12:45:56;5.40;;;1.70;;
5845;SDS011;2949;50.778;7.094;2023-04-25T12:48:22;4.50;;;1.30;;
5845;SDS011;2949;50.778;7.094;2023-04-25T12:50:48;3.60;;;1.60;;
5845;SDS011;2949;50.778;7.094;2023-04-25T12:53:14;3.83;;;1.20;;
5845;SDS011;2949;50.778;7.094;2023-04-25T12:55:41;5.27;;;1.50;;
5845;SDS011;2949;50.778;7.094;2023-04-25T12:58:07;3.27;;;1.17;;
5845;SDS011;2949;50.778;7.094;2023-04-25T13:00:32;3.63;;;1.13;;
5845;SDS011;2949;50.778;7.094;2023-04-25T13:02:58;6.90;;;1.57;;
5845;SDS011;2949;50.778;7.094;2023-04-25T13:05:24;2.10;;;1.20;;
5845;SDS011;2949;50.778;7.094;2023-04-25T13:07:50;4.63;;;1.37;;
5845;SDS011;2949;50.778;7.094;2023-04-25T13:10:16;4.07;;;1.30;;
5845;SDS011;2949;50.778;7.094;2023-04-25T13:12:42;2.50;;;0.97;;
5845;SDS011;2949;50.778;7.094;2023-04-25T13:15:08;5.40;;;1.40;;
5845;SDS011;2949;50.778;7.094;2023-04-25T13:17:36;3.60;;;1.43;;
5845;SDS011;2949;50.778;7.094;2023-04-25T13:20:03;15.40;;;1.80;;
5845;SDS011;2949;50.778;7.094;2023-04-25T13:22:33;3.63;;;1.20;;
5845;SDS011;2949;50.778;7.094;2023-04-25T13:25:01;7.07;;;1.40;;
5845;SDS011;2949;50.778;7.094;2023-04-25T13:27:27;3.37;;;1.23;;
5845;SDS011;2949;50.778;7.094;2023-04-25T13:29:52;4.03;;;1.33;;
5845;SDS011;2949;50.778;7.094;2023-04-25T13:32:18;3.03;;;1.10;;
5845;SDS011;2949;50.778;7.094;2023-04-25T13:34:43;7.40;;;1.67;;
5845;SDS011;2949;50.778;7.094;2023-04-25T13:37:09;5.90;;;1.57;;
5845;SDS011;2949;50.778;7.094;2023-04-25T13:39:35;3.23;;;1.40;;
5845;SDS011;2949;50.778;7.094;2023-04-25T13:42:00;8.30;;;1.43;;
5845;SDS011;2949;50.778;7.094;2023-04-25T13:44:26;6.37;;;1.20;;
5845;SDS011;2949;50.778;7.094;2023-04-25T13:46:52;5.33;;;1.60;;
5845;SDS011;2949;50.778;7.094;2023-04-25T13:49:17;3.90;;;1.07;;
5845;SDS011;2949;50.778;7.094;2023-04-25T13:51:43;6.03;;;1.60;;
5845;SDS011;2949;50.778;7.094;2023-04-25T13:54:08;9.33;;;1.93;;
5845;SDS011;2949;50.778;7.094;2023-04-25T13:56:34;5.83;;;1.33;;
5845;SDS011;2949;50.778;7.094;2023-04-25T13:59:00;4.07;;;1.87;;
5845;SDS011;2949;50.778;7.094;2023-04-25T14:01:25;8.30;;;1.27;;
5845;SDS011;2949;50.778;7.094;2023-04-25T14:03:52;1.87;;;1.20;;
5845;SDS011;2949;50.778;7.094;2023-04-25T14:06:18;4.97;;;1.50;;
5845;SDS011;2949;50.778;7.094;2023-04-25T14:08:47;5.87;;;0.97;;
5845;SDS011;2949;50.778;7.094;2023-04-25T14:11:14;8.17;;;1.20;;
5845;SDS011;2949;50.778;7.094;2023-04-25T14:13:39;3.50;;;1.17;;
5845;SDS011;2949;50.778;7.094;2023-04-25T14:16:05;8.40;;;1.70;;
5845;SDS011;2949;50.778;7.094;2023-04-25T14:18:30;5.07;;;1.33;;
5845;SDS011;2949;50.778;7.094;2023-04-25T14:20:56;6.90;;;1.50;;
5845;SDS011;2949;50.778;7.094;2023-04-25T14:23:21;3.87;;;1.30;;
5845;SDS011;2949;50.778;7.094;2023-04-25T14:25:47;6.50;;;1.33;;
5845;SDS011;2949;50.778;7.094;2023-04-25T14:28:12;2.70;;;1.20;;
5845;SDS011;2949;50.778;7.094;2023-04-25T14:30:38;5.23;;;1.33;;
5845;SDS011;2949;50.778;7.094;2023-04-25T14:33:03;3.53;;;1.20;;
5845;SDS011;2949;50.778;7.094;2023-04-25T14:35:29;2.27;;;1.20;;
5845;SDS011;2949;50.778;7.094;2023-04-25T14:37:54;1.33;;;1.13;;
5845;SDS011;2949;50.778;7.094;2023-04-25T14:40:20;3.27;;;1.53;;
5845;SDS011;2949;50.778;7.094;2023-04-25T14:42:48;3.30;;;1.47;;
5845;SDS011;2949;50.778;7.094;2023-04-25T14:45:14;8.10;;;1.83;;
5845;SDS011;2949;50.778;7.094;2023-04-25T14:47:40;2.07;;;1.30;;
5845;SDS011;2949;50.778;7.094;2023-04-25T14:50:06;4.57;;;1.00;;
5845;SDS011;2949;50.778;7.094;2023-04-25T14:52:33;4.07;;;0.90;;
5845;SDS011;2949;50.778;7.094;2023-04-25T14:54:59;11.70;;;2.17;;
5845;SDS011;2949;50.778;7.094;2023-04-25T14:57:33;4.00;;;1.00;;
5845;SDS011;2949;50.778;7.094;2023-04-25T14:59:59;4.07;;;1.50;;
5845;SDS011;2949;50.778;7.094;2023-04-25T15:02:25;3.60;;;1.10;;
5845;SDS011;2949;50.778;7.094;2023-04-25T15:04:51;4.73;;;0.90;;
5845;SDS011;2949;50.778;7.094;2023-04-25T15:07:17;3.50;;;1.27;;
5845;SDS011;2949;50.778;7.094;2023-04-25T15:09:42;3.17;;;0.73;;
5845;SDS011;2949;50.778;7.094;2023-04-25T15:12:08;2.40;;;0.93;;